createdAt,value
2018-11-29T00:02:23.414Z,1.00
2018-11-29T00:05:20.142Z,1.40
2018-11-29T00:08:16.650Z,1.30
2018-11-29T00:11:13.171Z,1.43
2018-11-29T00:14:09.668Z,1.30
2018-11-29T00:17:06.408Z,1.30
2018-11-29T00:20:02.930Z,1.30
2018-11-29T00:23:00.487Z,1.20
2018-11-29T00:25:57.001Z,1.20
2018-11-29T00:28:53.523Z,1.30
2018-11-29T00:31:49.830Z,1.40
2018-11-29T00:34:46.554Z,1.23
2018-11-29T00:37:43.495Z,1.03
2018-11-29T00:40:40.033Z,1.20
2018-11-29T00:43:36.736Z,1.30
2018-11-29T00:46:33.477Z,1.30
2018-11-29T00:49:30.194Z,1.30
2018-11-29T00:52:26.932Z,1.20
2018-11-29T00:55:24.490Z,1.30
2018-11-29T00:58:21.004Z,1.40
2018-11-29T01:01:17.595Z,1.20
2018-11-29T01:04:14.466Z,1.00
2018-11-29T01:07:12.014Z,1.13
2018-11-29T01:10:08.559Z,1.30
2018-11-29T01:13:05.897Z,1.23
2018-11-29T01:16:02.436Z,1.13
2018-11-29T01:19:00.813Z,1.10
2018-11-29T01:21:57.341Z,1.40
2018-11-29T01:24:54.051Z,1.67
2018-11-29T01:27:50.999Z,1.37
2018-11-29T01:30:47.450Z,1.17
2018-11-29T01:33:44.275Z,1.23
2018-11-29T01:36:41.605Z,1.60
2018-11-29T01:39:38.115Z,1.33
2018-11-29T01:42:34.843Z,1.40
2018-11-29T01:45:31.371Z,1.30
2018-11-29T01:48:27.868Z,1.30
2018-11-29T01:51:24.415Z,1.50
2018-11-29T01:54:21.138Z,1.07
2018-11-29T01:57:18.694Z,1.30
2018-11-29T02:00:14.993Z,1.43
2018-11-29T02:03:11.716Z,1.33
2018-11-29T02:06:08.228Z,1.37
2018-11-29T02:09:06.000Z,1.30
2018-11-29T02:12:03.382Z,1.20
2018-11-29T02:14:59.884Z,1.37
2018-11-29T02:17:56.622Z,1.40
2018-11-29T02:20:53.117Z,1.20
2018-11-29T02:23:49.638Z,1.27
2018-11-29T02:26:46.170Z,1.27
2018-11-29T02:29:42.912Z,1.40
2018-11-29T02:32:40.446Z,1.50
2018-11-29T02:35:36.965Z,1.50
2018-11-29T02:38:33.302Z,1.30
2018-11-29T02:41:29.756Z,1.20
2018-11-29T02:44:26.537Z,1.23
2018-11-29T02:47:23.053Z,1.10
2018-11-29T02:50:19.788Z,1.47
2018-11-29T02:53:16.258Z,1.57
2018-11-29T02:56:13.227Z,1.60
2018-11-29T02:59:09.746Z,1.23
2018-11-29T03:02:07.318Z,1.30
2018-11-29T03:05:05.091Z,1.30
2018-11-29T03:08:02.652Z,1.43
2018-11-29T03:11:00.078Z,1.30
2018-11-29T03:13:56.544Z,1.33
2018-11-29T03:16:53.034Z,1.37
2018-11-29T03:19:49.556Z,1.80
2018-11-29T03:22:46.093Z,1.33
2018-11-29T03:25:42.599Z,1.60
2018-11-29T03:28:38.954Z,1.40
2018-11-29T03:31:35.636Z,1.50
2018-11-29T03:34:31.941Z,1.40
2018-11-29T03:37:28.455Z,1.37
2018-11-29T03:40:26.010Z,1.40
2018-11-29T03:43:22.544Z,1.43
2018-11-29T03:46:19.260Z,1.30
2018-11-29T03:49:17.033Z,1.50
2018-11-29T03:52:13.557Z,1.67
2018-11-29T03:55:10.288Z,1.47
2018-11-29T03:58:06.635Z,1.60
2018-11-29T04:01:03.323Z,1.50
2018-11-29T04:04:00.960Z,1.40
2018-11-29T04:06:58.852Z,1.30
2018-11-29T04:09:55.406Z,1.30
2018-11-29T04:12:52.109Z,1.30
2018-11-29T04:15:48.629Z,1.30
2018-11-29T04:18:46.181Z,1.47
2018-11-29T04:21:44.368Z,1.60
2018-11-29T04:24:40.910Z,1.50
2018-11-29T04:27:37.624Z,1.20
2018-11-29T04:30:34.362Z,1.40
2018-11-29T04:33:30.655Z,1.40
2018-11-29T04:36:27.177Z,1.10
2018-11-29T04:39:23.707Z,1.50
2018-11-29T04:42:20.216Z,1.30
2018-11-29T04:45:16.949Z,1.20
2018-11-29T04:48:13.672Z,1.40
2018-11-29T04:51:12.287Z,1.37
2018-11-29T04:54:08.791Z,1.30
2018-11-29T04:57:05.527Z,1.23
2018-11-29T05:00:02.043Z,1.37
2018-11-29T05:02:58.569Z,1.30
2018-11-29T05:05:55.075Z,1.47
2018-11-29T05:08:51.588Z,1.10
2018-11-29T05:11:48.518Z,1.60
2018-11-29T05:14:45.052Z,1.33
2018-11-29T05:17:41.552Z,1.17
2018-11-29T05:20:38.084Z,1.40
2018-11-29T05:23:35.029Z,1.20
2018-11-29T05:26:31.532Z,1.50
2018-11-29T05:29:28.481Z,1.30
2018-11-29T05:32:24.778Z,1.50
2018-11-29T05:35:22.374Z,1.40
2018-11-29T05:38:18.661Z,1.30
2018-11-29T05:41:15.390Z,1.20
2018-11-29T05:44:12.117Z,1.33
2018-11-29T05:47:08.849Z,1.57
2018-11-29T05:50:06.186Z,1.30
2018-11-29T05:53:02.939Z,1.33
2018-11-29T05:55:59.366Z,1.10
2018-11-29T05:58:55.961Z,1.20
2018-11-29T06:01:53.532Z,1.07
2018-11-29T06:04:51.911Z,1.33
2018-11-29T06:07:48.235Z,1.10
2018-11-29T06:10:44.947Z,1.30
2018-11-29T06:13:42.117Z,1.03
2018-11-29T06:16:38.628Z,1.30
2018-11-29T06:19:35.552Z,1.27
2018-11-29T06:22:32.081Z,1.60
2018-11-29T06:25:28.599Z,1.27
2018-11-29T06:28:25.949Z,1.03
2018-11-29T06:31:23.507Z,1.10
2018-11-29T06:34:21.133Z,0.90
2018-11-29T06:37:17.805Z,0.83
2018-11-29T06:40:15.153Z,0.90
2018-11-29T06:43:11.879Z,1.00
2018-11-29T06:46:08.413Z,1.00
2018-11-29T06:49:04.717Z,1.00
2018-11-29T06:52:01.239Z,0.87
2018-11-29T06:54:57.963Z,1.13
2018-11-29T06:57:54.671Z,0.80
2018-11-29T07:00:52.045Z,1.00
2018-11-29T07:03:48.543Z,0.70
2018-11-29T07:06:45.072Z,0.80
2018-11-29T07:09:42.620Z,0.70
2018-11-29T07:12:39.357Z,0.97
2018-11-29T07:15:35.867Z,0.90
2018-11-29T07:18:33.446Z,1.03
2018-11-29T07:21:35.823Z,0.60
2018-11-29T07:24:33.385Z,0.77
2018-11-29T07:27:30.719Z,0.77
2018-11-29T07:30:29.358Z,0.63
2018-11-29T07:33:25.854Z,0.90
2018-11-29T07:36:22.384Z,0.80
2018-11-29T07:39:20.143Z,0.60
2018-11-29T07:42:16.454Z,0.80
2018-11-29T07:45:13.180Z,0.70
2018-11-29T07:48:09.581Z,0.40
2018-11-29T07:51:06.228Z,0.70
2018-11-29T07:54:03.597Z,0.70
2018-11-29T07:57:00.305Z,0.77
2018-11-29T07:59:56.614Z,0.60
2018-11-29T08:02:53.339Z,0.67
2018-11-29T08:05:50.681Z,0.60
2018-11-29T08:08:47.638Z,0.90
2018-11-29T08:11:43.937Z,0.87
2018-11-29T08:14:41.711Z,1.23
2018-11-29T08:17:38.437Z,1.20
2018-11-29T08:20:35.853Z,1.17
2018-11-29T08:23:32.521Z,1.00
2018-11-29T08:26:29.029Z,1.20
2018-11-29T08:29:25.761Z,1.50
2018-11-29T08:32:22.481Z,1.33
2018-11-29T08:35:18.817Z,1.20
2018-11-29T08:38:15.519Z,0.97
2018-11-29T08:41:13.016Z,0.90
2018-11-29T08:44:09.482Z,0.70
2018-11-29T08:47:09.908Z,1.00
2018-11-29T08:50:06.614Z,1.00
2018-11-29T08:53:03.961Z,1.00
2018-11-29T08:56:00.698Z,1.00
2018-11-29T08:58:57.228Z,0.70
2018-11-29T09:01:53.927Z,0.90
2018-11-29T09:04:50.478Z,1.20
2018-11-29T09:07:47.775Z,1.00
2018-11-29T09:10:44.565Z,1.10
2018-11-29T09:13:41.059Z,1.07
2018-11-29T09:16:37.579Z,1.20
2018-11-29T09:19:37.508Z,1.10
2018-11-29T09:22:31.654Z,0.97
2018-11-29T09:25:29.420Z,0.90
2018-11-29T09:28:25.747Z,1.20
2018-11-29T09:31:22.105Z,0.90
2018-11-29T09:34:29.448Z,0.83
2018-11-29T09:37:26.148Z,1.13
2018-11-29T09:40:28.737Z,1.00
2018-11-29T09:43:25.245Z,0.80
2018-11-29T09:46:21.775Z,1.03
2018-11-29T09:49:19.528Z,1.10
2018-11-29T09:52:17.447Z,1.10
2018-11-29T09:55:13.825Z,1.00
2018-11-29T09:58:10.760Z,0.80
2018-11-29T10:01:07.483Z,0.67
2018-11-29T10:04:04.638Z,0.67
2018-11-29T10:07:01.412Z,0.90
2018-11-29T10:09:58.926Z,0.70
2018-11-29T10:12:55.458Z,1.00
2018-11-29T10:15:51.972Z,0.90
2018-11-29T10:18:48.706Z,0.90
2018-11-29T10:21:45.208Z,0.90
2018-11-29T10:24:42.148Z,0.70
2018-11-29T10:27:38.455Z,1.00
2018-11-29T10:30:37.278Z,0.90
2018-11-29T10:33:34.129Z,1.00
2018-11-29T10:36:30.507Z,0.70
2018-11-29T10:39:27.075Z,0.63
2018-11-29T10:42:23.567Z,0.87
2018-11-29T10:45:23.001Z,0.67
2018-11-29T10:48:20.776Z,0.57
2018-11-29T10:51:17.491Z,0.70
2018-11-29T10:54:16.821Z,0.90
2018-11-29T10:57:10.937Z,0.50
2018-11-29T11:00:08.710Z,0.70
2018-11-29T11:03:12.342Z,0.80
2018-11-29T11:06:09.082Z,0.77
2018-11-29T11:09:06.009Z,0.73
2018-11-29T11:12:02.733Z,0.70
2018-11-29T11:15:00.087Z,0.63
2018-11-29T11:17:57.235Z,0.63
2018-11-29T11:20:53.529Z,0.50
2018-11-29T11:23:51.312Z,0.70
2018-11-29T11:26:48.685Z,0.73
2018-11-29T11:29:45.185Z,0.43
2018-11-29T11:32:41.905Z,0.63
2018-11-29T11:35:39.465Z,0.67
2018-11-29T11:38:35.987Z,0.63
2018-11-29T11:41:32.721Z,0.50
2018-11-29T11:44:29.057Z,1.00
2018-11-29T11:47:25.758Z,0.70
2018-11-29T11:50:24.137Z,0.70
2018-11-29T11:53:21.490Z,0.60
2018-11-29T11:56:18.024Z,0.70
2018-11-29T11:59:14.748Z,0.70
2018-11-29T12:02:12.111Z,0.60
2018-11-29T12:05:08.832Z,0.60
2018-11-29T12:08:06.410Z,0.80
2018-11-29T12:11:03.109Z,0.60
2018-11-29T12:13:59.433Z,0.90
2018-11-29T12:16:55.971Z,0.67
2018-11-29T12:19:52.467Z,0.70
2018-11-29T12:22:49.188Z,0.90
2018-11-29T12:25:45.752Z,0.90
2018-11-29T12:28:43.260Z,0.80
2018-11-29T12:31:40.833Z,0.60
2018-11-29T12:34:38.417Z,0.70
2018-11-29T12:37:35.552Z,0.53
2018-11-29T12:40:32.059Z,0.70
2018-11-29T12:43:28.808Z,0.60
2018-11-29T12:46:25.509Z,0.50
2018-11-29T12:49:22.883Z,0.60
2018-11-29T12:52:19.426Z,0.80
2018-11-29T12:55:15.896Z,0.63
2018-11-29T12:58:12.433Z,0.73
2018-11-29T13:01:09.792Z,0.70
2018-11-29T13:04:06.512Z,0.70
2018-11-29T13:07:03.230Z,0.50
2018-11-29T13:10:00.806Z,0.70
2018-11-29T13:12:57.582Z,0.63
2018-11-29T13:15:54.047Z,0.57
2018-11-29T13:18:50.558Z,0.50
2018-11-29T13:21:47.293Z,0.47
2018-11-29T13:24:44.440Z,0.50
2018-11-29T13:27:42.631Z,0.60
2018-11-29T13:30:39.550Z,0.47
2018-11-29T13:33:36.290Z,0.70
2018-11-29T13:36:33.847Z,0.57
2018-11-29T13:39:31.010Z,0.87
2018-11-29T13:42:27.932Z,0.83
2018-11-29T13:45:25.909Z,0.80
2018-11-29T13:48:23.666Z,0.60
2018-11-29T13:51:20.014Z,0.50
2018-11-29T13:54:16.514Z,0.73
2018-11-29T13:57:12.817Z,0.73
2018-11-29T14:00:09.551Z,0.70
2018-11-29T14:03:08.194Z,0.70
2018-11-29T14:06:05.521Z,0.77
2018-11-29T14:09:02.237Z,1.10
2018-11-29T14:11:58.603Z,0.60
2018-11-29T14:14:55.470Z,0.80
2018-11-29T14:17:52.206Z,1.00
2018-11-29T14:20:48.728Z,0.90
2018-11-29T14:23:45.317Z,0.73
2018-11-29T14:26:41.773Z,0.90
2018-11-29T14:29:38.277Z,0.83
2018-11-29T14:32:34.798Z,0.70
2018-11-29T14:35:31.444Z,0.60
2018-11-29T14:38:28.030Z,0.50
2018-11-29T14:41:24.562Z,0.70
2018-11-29T14:44:23.167Z,0.80
2018-11-29T14:47:20.532Z,0.70
2018-11-29T14:50:17.223Z,0.80
2018-11-29T14:53:13.785Z,0.80
2018-11-29T14:56:10.513Z,0.87
2018-11-29T14:59:07.006Z,0.80
2018-11-29T15:02:04.588Z,0.97
2018-11-29T15:05:00.872Z,0.73
2018-11-29T15:07:58.444Z,0.70
2018-11-29T15:10:54.958Z,0.63
2018-11-29T15:13:51.693Z,0.70
2018-11-29T15:16:48.225Z,0.90
2018-11-29T15:19:48.710Z,0.90
2018-11-29T15:22:45.219Z,0.70
2018-11-29T15:25:41.733Z,0.80
2018-11-29T15:28:38.456Z,0.93
2018-11-29T15:31:37.064Z,0.73
2018-11-29T15:34:34.431Z,0.90
2018-11-29T15:37:31.170Z,0.90
2018-11-29T15:40:28.714Z,0.50
2018-11-29T15:43:25.431Z,0.93
2018-11-29T15:46:21.874Z,0.70
2018-11-29T15:49:19.742Z,0.60
2018-11-29T15:52:17.495Z,0.80
2018-11-29T15:55:15.309Z,0.50
2018-11-29T15:58:12.046Z,0.57
2018-11-29T16:01:08.518Z,0.50
2018-11-29T16:04:05.251Z,0.83
2018-11-29T16:07:01.766Z,0.70
2018-11-29T16:09:59.333Z,0.70
2018-11-29T16:12:55.878Z,0.67
2018-11-29T16:15:52.234Z,0.80
2018-11-29T16:18:48.688Z,0.63
2018-11-29T16:21:45.196Z,0.87
2018-11-29T16:24:41.709Z,0.63
2018-11-29T16:27:38.998Z,0.60
2018-11-29T16:30:47.412Z,0.80
2018-11-29T16:33:45.706Z,0.60
2018-11-29T16:36:42.428Z,0.80
2018-11-29T16:39:38.922Z,0.90
2018-11-29T16:42:35.642Z,0.97
2018-11-29T16:45:33.217Z,0.73
2018-11-29T16:48:29.958Z,0.77
2018-11-29T16:51:27.504Z,0.70
2018-11-29T16:54:29.446Z,0.60
2018-11-29T16:57:26.079Z,0.80
2018-11-29T17:00:29.530Z,0.63
2018-11-29T17:03:26.116Z,0.77
2018-11-29T17:06:22.626Z,0.70
2018-11-29T17:09:23.109Z,0.80
2018-11-29T17:12:22.135Z,0.70
2018-11-29T17:15:18.652Z,0.80
2018-11-29T17:18:15.614Z,0.80
2018-11-29T17:21:13.145Z,0.80
2018-11-29T17:24:10.732Z,0.80
2018-11-29T17:27:07.430Z,0.80
2018-11-29T17:30:04.403Z,0.40
2018-11-29T17:33:01.947Z,0.70
2018-11-29T17:35:58.460Z,0.90
2018-11-29T17:38:55.215Z,0.73
2018-11-29T17:41:53.166Z,0.67
2018-11-29T17:44:50.947Z,1.10
2018-11-29T17:47:47.872Z,0.73
2018-11-29T17:50:49.620Z,0.80
2018-11-29T17:53:46.340Z,0.90
2018-11-29T17:56:43.932Z,0.77
2018-11-29T17:59:40.861Z,0.80
2018-11-29T18:02:37.568Z,0.83
2018-11-29T18:05:35.342Z,0.87
2018-11-29T18:08:31.749Z,0.93
2018-11-29T18:11:28.798Z,0.90
2018-11-29T18:14:25.111Z,0.77
2018-11-29T18:17:22.876Z,0.90
2018-11-29T18:20:20.456Z,0.90
2018-11-29T18:23:17.165Z,0.87
2018-11-29T18:26:14.102Z,0.60
2018-11-29T18:29:11.030Z,0.70
2018-11-29T18:32:08.403Z,1.00
2018-11-29T18:35:05.142Z,0.80
2018-11-29T18:38:01.844Z,1.10
2018-11-29T18:40:58.784Z,0.90
2018-11-29T18:43:55.732Z,0.87
2018-11-29T18:46:53.066Z,0.83
2018-11-29T18:49:50.006Z,0.70
2018-11-29T18:52:47.571Z,1.17
2018-11-29T18:55:44.523Z,0.90
2018-11-29T18:58:41.087Z,1.03
2018-11-29T19:01:37.958Z,1.20
2018-11-29T19:04:34.686Z,1.00
2018-11-29T19:07:32.242Z,1.10
2018-11-29T19:10:30.236Z,0.97
2018-11-29T19:13:27.802Z,0.77
2018-11-29T19:16:25.356Z,0.90
2018-11-29T19:19:23.120Z,1.10
2018-11-29T19:22:20.917Z,1.30
2018-11-29T19:25:18.249Z,1.10
2018-11-29T19:28:15.004Z,1.00
2018-11-29T19:31:11.501Z,1.27
2018-11-29T19:34:09.276Z,1.20
2018-11-29T19:37:05.814Z,1.07
2018-11-29T19:40:02.734Z,1.13
2018-11-29T19:42:59.876Z,1.10
2018-11-29T19:45:57.027Z,1.20
2018-11-29T19:48:54.581Z,1.30
2018-11-29T19:51:52.566Z,1.20
2018-11-29T19:54:49.085Z,1.27
2018-11-29T19:57:45.804Z,1.30
2018-11-29T20:00:42.531Z,1.10
2018-11-29T20:03:39.467Z,1.33
2018-11-29T20:06:35.818Z,1.20
2018-11-29T20:09:32.711Z,1.10
2018-11-29T20:12:29.648Z,1.30
2018-11-29T20:15:27.523Z,1.10
2018-11-29T20:18:24.952Z,1.30
2018-11-29T20:21:21.922Z,1.43
2018-11-29T20:24:18.444Z,1.23
2018-11-29T20:27:15.165Z,1.40
2018-11-29T20:30:11.717Z,1.33
2018-11-29T20:33:09.459Z,1.23
2018-11-29T20:36:06.219Z,1.47
2018-11-29T20:39:03.963Z,1.30
2018-11-29T20:42:00.517Z,1.40
2018-11-29T20:44:58.243Z,1.37
2018-11-29T20:47:54.978Z,1.23
2018-11-29T20:50:52.335Z,1.30
2018-11-29T20:53:52.189Z,1.20
2018-11-29T20:56:48.715Z,1.27
2018-11-29T20:59:46.269Z,1.40
2018-11-29T21:02:42.985Z,1.40
2018-11-29T21:05:40.352Z,1.10
2018-11-29T21:08:37.075Z,1.30
2018-11-29T21:11:34.016Z,1.37
2018-11-29T21:14:30.958Z,1.40
2018-11-29T21:17:27.892Z,1.20
2018-11-29T21:20:25.458Z,1.33
2018-11-29T21:23:23.450Z,1.50
2018-11-29T21:26:19.971Z,1.57
2018-11-29T21:29:17.916Z,1.67
2018-11-29T21:32:14.662Z,1.40
2018-11-29T21:35:11.176Z,1.53
2018-11-29T21:38:08.945Z,1.57
2018-11-29T21:41:09.222Z,1.53
2018-11-29T21:44:05.950Z,1.27
2018-11-29T21:47:02.663Z,1.20
2018-11-29T21:50:00.010Z,1.30
2018-11-29T21:52:55.703Z,1.40
2018-11-29T21:55:52.644Z,1.40
2018-11-29T21:58:49.172Z,1.40
2018-11-29T22:01:45.673Z,1.07
2018-11-29T22:04:42.405Z,1.13
2018-11-29T22:07:39.357Z,1.50
2018-11-29T22:10:36.066Z,1.50
2018-11-29T22:13:33.839Z,1.10
2018-11-29T22:16:30.381Z,1.30
2018-11-29T22:19:27.295Z,1.30
2018-11-29T22:22:23.817Z,1.10
2018-11-29T22:25:21.586Z,1.20
2018-11-29T22:28:18.686Z,1.17
2018-11-29T22:31:15.672Z,1.30
2018-11-29T22:34:12.420Z,1.40
2018-11-29T22:37:09.149Z,1.50
2018-11-29T22:40:05.846Z,0.83
2018-11-29T22:43:02.791Z,1.20
2018-11-29T22:46:00.556Z,1.10
2018-11-29T22:48:57.071Z,1.30
2018-11-29T22:51:53.794Z,1.00
2018-11-29T22:54:50.532Z,1.30
2018-11-29T22:57:47.045Z,1.10
2018-11-29T23:00:50.038Z,1.17
2018-11-29T23:03:47.400Z,1.10
2018-11-29T23:06:44.128Z,1.20
2018-11-29T23:09:40.849Z,1.10
2018-11-29T23:12:38.405Z,0.83
2018-11-29T23:15:34.721Z,1.10
2018-11-29T23:18:31.661Z,1.07
2018-11-29T23:21:29.633Z,1.00
2018-11-29T23:24:26.388Z,0.83
2018-11-29T23:27:24.147Z,0.90
2018-11-29T23:30:27.781Z,1.23
2018-11-29T23:33:24.488Z,0.90
2018-11-29T23:36:21.211Z,0.87
2018-11-29T23:39:17.952Z,1.30
2018-11-29T23:42:15.925Z,0.90
2018-11-29T23:45:12.647Z,1.47
2018-11-29T23:48:09.170Z,1.10
2018-11-29T23:51:06.108Z,1.00
2018-11-29T23:54:05.126Z,1.10
2018-11-29T23:57:01.855Z,1.07
2018-11-29T23:59:58.580Z,1.10
